Terminal Aerodrome Forecast
Issued by NWS Shreveport, LA

Home | Current Version | Previous Version | Text Only | Print | Product List | Glossary On
Versions: 1 2 3 4 5 6 7 8 9 10 11 12 13
000
FTUS44 KSHV 161720
TAFTYR
TAF
KTYR 161720Z 1618/1718 19009KT P6SM BKN150 BKN250
     FM162100 16010KT P6SM VCSH SCT050 BKN080
     FM162300 16007KT P6SM -RA BKN050
     FM170100 15006KT 2SM SHRA BR OVC010
     FM170800 16004KT 3SM BR VCSH OVC003
     FM171000 17004KT 5SM BR OVC007=

USA.gov is the U.S. government's official web portal to all federal, state and local government web resources and services.